Time;durP1;ratioP1;P1;durP2;ratioP2;P2;SDS_P1;SDS_P2;PMS_P1;PMS_P2;Temp;Humidity;BMP_temperature;BMP_pressure;BME280_temperature;BME280_humidity;BME280_pressure;Samples;Min_cycle;Max_cycle;Signal;HPM_P1;HPM_P2
2021/06/06 00:00:55;;;;;;;1.00;0.70;;;;;;;;;;5068739;28;20052;-77
2021/06/06 00:03:34;;;;;;;1.13;0.68;;;;;;;;;;5024733;28;20025;-77
2021/06/06 00:06:08;;;;;;;0.85;0.57;;;;;;;;;;5040444;28;20029;-77
2021/06/06 00:08:33;;;;;;;1.35;0.80;;;;;;;;;;5034945;28;20055;-77
2021/06/06 00:11:02;;;;;;;0.90;0.63;;;;;;;;;;5053173;28;20061;-77
2021/06/06 00:13:27;;;;;;;1.00;0.63;;;;;;;;;;5023114;28;20032;-77
2021/06/06 00:15:53;;;;;;;1.00;0.67;;;;;;;;;;5022828;28;20466;-77
2021/06/06 00:18:18;;;;;;;1.80;0.80;;;;;;;;;;5055806;28;20017;-77
2021/06/06 00:20:44;;;;;;;2.17;0.70;;;;;;;;;;5039143;28;20032;-78
2021/06/06 00:23:09;;;;;;;1.43;0.73;;;;;;;;;;5064774;28;20390;-78
2021/06/06 00:25:35;;;;;;;1.87;0.70;;;;;;;;;;5039803;28;20028;-77
2021/06/06 00:28:00;;;;;;;0.93;0.60;;;;;;;;;;5022833;28;20029;-77
2021/06/06 00:30:26;;;;;;;0.70;0.50;;;;;;;;;;5023895;28;20048;-78
2021/06/06 00:32:51;;;;;;;1.07;0.70;;;;;;;;;;5058674;28;20024;-77
2021/06/06 00:35:17;;;;;;;0.80;0.60;;;;;;;;;;5058997;28;20024;-78
2021/06/06 00:37:42;;;;;;;0.97;0.50;;;;;;;;;;5059223;28;20531;-78
2021/06/06 00:40:09;;;;;;;1.60;0.77;;;;;;;;;;5059091;28;20031;-77
2021/06/06 00:42:34;;;;;;;0.93;0.60;;;;;;;;;;5075205;28;20044;-78
2021/06/06 00:44:59;;;;;;;0.83;0.60;;;;;;;;;;5057583;28;20029;-78
2021/06/06 00:47:28;;;;;;;1.00;0.60;;;;;;;;;;5059345;28;20395;-77
2021/06/06 00:49:54;;;;;;;1.00;0.60;;;;;;;;;;5039549;28;20066;-77
2021/06/06 00:52:19;;;;;;;1.57;0.70;;;;;;;;;;5055301;28;20040;-77
2021/06/06 00:54:46;;;;;;;0.70;0.50;;;;;;;;;;5042156;28;20029;-78
2021/06/06 00:57:11;;;;;;;;;;;;;;;;;;5042482;28;20021;-77
2021/06/06 00:59:38;;;;;;;1.25;0.60;;;;;;;;;;5075276;28;19908;-78
2021/06/06 01:02:03;;;;;;;;;;;;;;;;;;5075220;28;20032;-78
2021/06/06 01:04:29;;;;;;;1.35;0.73;;;;;;;;;;5073086;28;19997;-77
2021/06/06 01:06:54;;;;;;;0.73;0.50;;;;;;;;;;5038841;28;20060;-78
2021/06/06 01:09:22;;;;;;;1.10;0.60;;;;;;;;;;5022141;28;20028;-78
2021/06/06 01:12:15;;;;;;;1.42;0.60;;;;;;;;;;5050973;28;20372;-78
2021/06/06 01:14:43;;;;;;;1.38;0.60;;;;;;;;;;5075185;28;20017;-78
2021/06/06 01:17:17;;;;;;;2.30;0.60;;;;;;;;;;5058506;28;20116;-78
2021/06/06 01:19:49;;;;;;;1.77;0.60;;;;;;;;;;5075103;28;20019;-78
2021/06/06 01:22:33;;;;;;;0.70;0.60;;;;;;;;;;5058049;28;20040;-78
2021/06/06 01:25:09;;;;;;;0.95;0.60;;;;;;;;;;5060811;28;20094;-77
2021/06/06 01:27:37;;;;;;;0.75;0.57;;;;;;;;;;5058912;28;20072;-77
2021/06/06 01:30:23;;;;;;;0.90;0.60;;;;;;;;;;5058227;28;20047;-77
2021/06/06 01:33:06;;;;;;;1.13;0.68;;;;;;;;;;5040469;28;20028;-77
2021/06/06 01:35:38;;;;;;;1.13;0.70;;;;;;;;;;5039290;28;20029;-77
2021/06/06 01:38:10;;;;;;;1.30;0.50;;;;;;;;;;5038360;28;20029;-77
2021/06/06 01:40:36;;;;;;;1.15;0.70;;;;;;;;;;5041153;28;20495;-78
2021/06/06 01:43:03;;;;;;;0.70;0.53;;;;;;;;;;5074604;28;20035;-78
2021/06/06 01:45:37;;;;;;;1.27;0.68;;;;;;;;;;5038884;28;20282;-77
2021/06/06 01:48:07;;;;;;;1.23;0.70;;;;;;;;;;5042211;28;20020;-78
2021/06/06 01:50:54;;;;;;;1.13;0.68;;;;;;;;;;5058118;28;20040;-78
2021/06/06 01:53:19;;;;;;;0.98;0.60;;;;;;;;;;5060463;28;20029;-77
2021/06/06 01:55:47;;;;;;;0.73;0.53;;;;;;;;;;5057647;28;20430;-77
2021/06/06 01:58:13;;;;;;;1.13;0.60;;;;;;;;;;5040681;28;20028;-77
2021/06/06 02:00:44;;;;;;;1.35;0.60;;;;;;;;;;5057835;28;20033;-77
2021/06/06 02:03:10;;;;;;;0.80;0.60;;;;;;;;;;5073884;28;20490;-78
2021/06/06 02:05:35;;;;;;;2.22;0.68;;;;;;;;;;5051086;28;20048;-77
2021/06/06 02:08:01;;;;;;;0.70;0.50;;;;;;;;;;5056424;28;20682;-78
2021/06/06 02:10:37;;;;;;;0.75;0.57;;;;;;;;;;5057668;28;20020;-77
2021/06/06 02:13:25;;;;;;;1.23;0.68;;;;;;;;;;5038689;28;20527;-77
2021/06/06 02:15:52;;;;;;;0.60;0.50;;;;;;;;;;5072391;28;20529;-77
2021/06/06 02:18:18;;;;;;;1.45;0.60;;;;;;;;;;5057272;28;20024;-78
2021/06/06 02:20:44;;;;;;;0.60;0.50;;;;;;;;;;5074131;28;20043;-77
2021/06/06 02:23:10;;;;;;;0.85;0.50;;;;;;;;;;5072311;28;20064;-77
2021/06/06 02:25:36;;;;;;;0.87;0.60;;;;;;;;;;5056581;28;20063;-77
2021/06/06 02:28:20;;;;;;;1.38;0.60;;;;;;;;;;5040325;28;20119;-77
2021/06/06 02:31:02;;;;;;;0.93;0.60;;;;;;;;;;5056779;28;20033;-78
2021/06/06 02:33:38;;;;;;;0.95;0.65;;;;;;;;;;5057235;28;20382;-77
2021/06/06 02:36:05;;;;;;;1.15;0.70;;;;;;;;;;5053106;28;20033;-77
2021/06/06 02:38:40;;;;;;;0.98;0.55;;;;;;;;;;5054068;28;20036;-78
2021/06/06 02:41:13;;;;;;;0.93;0.50;;;;;;;;;;5020539;28;20033;-77
2021/06/06 02:43:51;;;;;;;0.93;0.55;;;;;;;;;;5053542;28;20100;-78
2021/06/06 02:46:18;;;;;;;1.02;0.52;;;;;;;;;;5038155;28;20381;-77
2021/06/06 02:48:45;;;;;;;0.65;0.50;;;;;;;;;;5036588;28;20074;-77
2021/06/06 02:51:12;;;;;;;1.08;0.60;;;;;;;;;;5036563;28;20033;-77
2021/06/06 02:53:41;;;;;;;0.80;0.60;;;;;;;;;;5048786;28;20048;-78
2021/06/06 02:56:14;;;;;;;0.80;0.60;;;;;;;;;;5052953;28;20029;-77
2021/06/06 02:58:50;;;;;;;0.85;0.60;;;;;;;;;;5036450;28;20021;-77
2021/06/06 03:01:20;;;;;;;0.88;0.57;;;;;;;;;;5037134;28;20108;-78
2021/06/06 03:03:46;;;;;;;1.05;0.60;;;;;;;;;;5039219;28;20446;-77
2021/06/06 03:06:13;;;;;;;1.17;0.60;;;;;;;;;;5039727;28;20021;-77
2021/06/06 03:08:39;;;;;;;1.00;0.50;;;;;;;;;;5039268;28;20025;-77
2021/06/06 03:11:06;;;;;;;0.90;0.60;;;;;;;;;;5065932;28;20094;-77
2021/06/06 03:13:36;;;;;;;0.70;0.40;;;;;;;;;;5072377;28;20031;-77
2021/06/06 03:16:02;;;;;;;0.65;0.40;;;;;;;;;;5055629;28;20032;-78
2021/06/06 03:18:30;;;;;;;0.70;0.50;;;;;;;;;;5056093;28;20389;-77
2021/06/06 03:20:59;;;;;;;0.70;0.50;;;;;;;;;;5072807;28;20094;-78
2021/06/06 03:23:26;;;;;;;0.88;0.50;;;;;;;;;;5056685;28;20052;-77
2021/06/06 03:26:03;;;;;;;0.90;0.60;;;;;;;;;;5039392;28;20387;-77
2021/06/06 03:28:31;;;;;;;0.80;0.50;;;;;;;;;;5040540;28;20048;-77
2021/06/06 03:31:36;;;;;;;0.88;0.60;;;;;;;;;;5056453;28;20387;-77
2021/06/06 03:34:02;;;;;;;1.38;0.70;;;;;;;;;;5041774;28;20021;-77
2021/06/06 03:36:36;;;;;;;0.90;0.43;;;;;;;;;;5072598;28;20085;-77
2021/06/06 03:39:06;;;;;;;0.82;0.60;;;;;;;;;;5055542;28;20063;-77
2021/06/06 03:41:31;;;;;;;1.25;0.50;;;;;;;;;;5056898;28;20116;-77
2021/06/06 03:43:57;;;;;;;1.30;0.60;;;;;;;;;;5072649;28;20454;-77
2021/06/06 03:46:23;;;;;;;0.90;0.50;;;;;;;;;;5055970;28;20060;-77
2021/06/06 03:48:49;;;;;;;0.88;0.57;;;;;;;;;;5072948;28;20024;-78
2021/06/06 03:51:14;;;;;;;1.37;0.67;;;;;;;;;;5055568;28;20032;-78
2021/06/06 03:53:40;;;;;;;0.67;0.43;;;;;;;;;;5056101;28;20032;-78
2021/06/06 03:56:06;;;;;;;1.00;0.60;;;;;;;;;;5055700;28;20107;-77
2021/06/06 03:58:31;;;;;;;0.70;0.50;;;;;;;;;;5055842;28;20016;-77
2021/06/06 04:00:56;;;;;;;1.50;0.73;;;;;;;;;;5056136;28;20349;-77
2021/06/06 04:03:22;;;;;;;0.90;0.60;;;;;;;;;;5056767;28;20032;-77
2021/06/06 04:05:47;;;;;;;0.83;0.60;;;;;;;;;;5072229;28;20119;-77
2021/06/06 04:08:13;;;;;;;0.80;0.50;;;;;;;;;;5055527;28;20028;-78
2021/06/06 04:10:38;;;;;;;0.93;0.60;;;;;;;;;;5055562;28;20052;-78
2021/06/06 04:13:04;;;;;;;0.87;0.50;;;;;;;;;;5055693;28;20029;-78
2021/06/06 04:15:29;;;;;;;1.73;0.70;;;;;;;;;;5054633;28;20029;-77
2021/06/06 04:17:54;;;;;;;1.03;0.63;;;;;;;;;;5055179;28;20403;-77
2021/06/06 04:20:20;;;;;;;1.00;0.70;;;;;;;;;;5055577;28;20030;-77
2021/06/06 04:22:45;;;;;;;1.37;0.60;;;;;;;;;;5055219;28;20113;-77
2021/06/06 04:25:11;;;;;;;0.83;0.60;;;;;;;;;;5072578;28;20021;-78
2021/06/06 04:27:36;;;;;;;0.80;0.57;;;;;;;;;;5067088;22;20128;-76
2021/06/06 04:30:04;;;;;;;1.00;0.60;;;;;;;;;;5034407;28;20029;-76
2021/06/06 04:32:30;;;;;;;1.05;0.50;;;;;;;;;;5034894;28;20041;-76
2021/06/06 04:34:55;;;;;;;0.73;0.50;;;;;;;;;;5051045;28;20099;-76
2021/06/06 04:37:20;;;;;;;0.63;0.43;;;;;;;;;;5031425;28;20029;-76
2021/06/06 04:39:46;;;;;;;0.70;0.60;;;;;;;;;;5014500;28;20506;-76
2021/06/06 04:42:16;;;;;;;0.40;0.40;;;;;;;;;;5031441;28;20472;-76
2021/06/06 04:44:41;;;;;;;0.85;0.52;;;;;;;;;;5015470;28;20753;-76
2021/06/06 04:47:10;;;;;;;1.00;0.60;;;;;;;;;;5017316;28;20056;-76
2021/06/06 04:49:37;;;;;;;1.33;0.60;;;;;;;;;;5031579;28;20463;-76
2021/06/06 04:52:02;;;;;;;0.68;0.50;;;;;;;;;;4998928;28;20069;-76
2021/06/06 04:54:28;;;;;;;0.60;0.50;;;;;;;;;;5017642;28;20072;-76
2021/06/06 04:56:53;;;;;;;0.90;0.50;;;;;;;;;;5035839;28;20296;-76
2021/06/06 04:59:18;;;;;;;0.83;0.60;;;;;;;;;;5035109;28;20052;-76
2021/06/06 05:01:44;;;;;;;0.57;0.40;;;;;;;;;;5014661;28;20515;-76
2021/06/06 05:04:09;;;;;;;0.60;0.40;;;;;;;;;;5014967;28;20049;-76
2021/06/06 05:06:34;;;;;;;0.67;0.50;;;;;;;;;;5033298;28;20116;-76
2021/06/06 05:09:00;;;;;;;0.83;0.57;;;;;;;;;;5014597;28;20111;-76
2021/06/06 05:11:26;;;;;;;0.80;0.57;;;;;;;;;;5030092;28;20040;-76
2021/06/06 05:13:52;;;;;;;0.85;0.60;;;;;;;;;;5034473;28;20100;-76
2021/06/06 05:16:17;;;;;;;0.80;0.50;;;;;;;;;;5035108;28;20464;-76
2021/06/06 05:18:42;;;;;;;0.60;0.43;;;;;;;;;;5029849;28;20079;-76
2021/06/06 05:21:08;;;;;;;0.70;0.50;;;;;;;;;;5023742;28;20034;-76
2021/06/06 05:23:33;;;;;;;0.60;0.50;;;;;;;;;;5014432;28;20068;-75
2021/06/06 05:25:59;;;;;;;0.97;0.60;;;;;;;;;;5024035;28;20029;-76
2021/06/06 05:28:26;;;;;;;1.00;0.60;;;;;;;;;;5033961;28;20025;-76
2021/06/06 05:30:52;;;;;;;0.85;0.40;;;;;;;;;;5033945;28;20037;-76
2021/06/06 05:33:17;;;;;;;0.70;0.43;;;;;;;;;;5034282;28;20037;-76
2021/06/06 05:35:42;;;;;;;0.70;0.50;;;;;;;;;;5050560;28;20087;-76
2021/06/06 05:38:10;;;;;;;0.80;0.50;;;;;;;;;;5034057;28;20069;-76
2021/06/06 05:40:36;;;;;;;1.60;0.80;;;;;;;;;;5020888;28;20030;-76
2021/06/06 05:43:02;;;;;;;0.80;0.40;;;;;;;;;;5014585;28;20350;-76
2021/06/06 05:45:28;;;;;;;0.60;0.45;;;;;;;;;;5046905;28;20580;-76
2021/06/06 05:47:53;;;;;;;1.03;0.60;;;;;;;;;;5014001;28;20014;-76
2021/06/06 05:50:21;;;;;;;0.70;0.50;;;;;;;;;;5049435;28;20025;-76
2021/06/06 05:52:47;;;;;;;0.93;0.60;;;;;;;;;;5017170;28;20033;-76
2021/06/06 05:55:12;;;;;;;1.00;0.60;;;;;;;;;;5033585;28;20032;-76
2021/06/06 05:57:38;;;;;;;0.98;0.52;;;;;;;;;;5033125;28;20396;-76
2021/06/06 06:00:06;;;;;;;0.57;0.40;;;;;;;;;;5013328;28;20030;-76
2021/06/06 06:02:31;;;;;;;0.73;0.50;;;;;;;;;;4997117;28;20068;-76
2021/06/06 06:04:56;;;;;;;0.83;0.50;;;;;;;;;;5013714;28;20449;-76
2021/06/06 06:07:21;;;;;;;0.60;0.50;;;;;;;;;;5036193;28;20022;-76
2021/06/06 06:09:47;;;;;;;0.90;0.60;;;;;;;;;;5033322;28;20057;-76
2021/06/06 06:12:12;;;;;;;0.70;0.50;;;;;;;;;;5029653;28;20052;-76
2021/06/06 06:14:38;;;;;;;0.73;0.50;;;;;;;;;;5032594;28;20072;-76
2021/06/06 06:17:03;;;;;;;0.70;0.50;;;;;;;;;;5034035;28;20057;-76
2021/06/06 06:19:28;;;;;;;0.80;0.50;;;;;;;;;;5032721;28;20075;-76
2021/06/06 06:21:54;;;;;;;0.47;0.40;;;;;;;;;;5033105;28;20109;-76
2021/06/06 06:24:20;;;;;;;0.97;0.60;;;;;;;;;;5040347;28;20091;-76
2021/06/06 06:26:45;;;;;;;0.43;0.40;;;;;;;;;;5012404;28;20033;-77
2021/06/06 06:29:11;;;;;;;2.23;0.70;;;;;;;;;;5013584;28;20067;-76
2021/06/06 06:31:36;;;;;;;2.57;0.70;;;;;;;;;;5050595;28;20028;-78
2021/06/06 06:34:02;;;;;;;4.60;0.50;;;;;;;;;;5034476;28;20029;-77
2021/06/06 06:36:27;;;;;;;1.17;0.50;;;;;;;;;;5048528;28;20037;-78
2021/06/06 06:38:53;;;;;;;0.93;0.57;;;;;;;;;;5039539;28;20043;-78
2021/06/06 06:41:19;;;;;;;0.93;0.60;;;;;;;;;;5023190;28;20032;-78
2021/06/06 06:43:44;;;;;;;;;;;;;;;;;;5040538;28;20033;-78
2021/06/06 06:46:10;;;;;;;0.70;0.50;;;;;;;;;;5038693;28;19992;-78
2021/06/06 06:48:36;;;;;;;0.93;0.50;;;;;;;;;;5020053;28;20292;-78
2021/06/06 06:51:01;;;;;;;0.60;0.37;;;;;;;;;;5029143;28;20041;-78
2021/06/06 06:53:27;;;;;;;0.87;0.50;;;;;;;;;;5041995;28;20028;-78
2021/06/06 06:55:52;;;;;;;0.57;0.40;;;;;;;;;;5020036;28;20030;-78
2021/06/06 06:58:18;;;;;;;3.13;0.60;;;;;;;;;;5004418;28;20049;-78
2021/06/06 07:00:44;;;;;;;0.80;0.50;;;;;;;;;;5019315;28;20061;-78
2021/06/06 07:03:12;;;;;;;1.00;0.60;;;;;;;;;;5003042;28;20026;-78
2021/06/06 07:05:37;;;;;;;0.88;0.50;;;;;;;;;;5010243;28;20068;-78
2021/06/06 07:08:04;;;;;;;1.43;0.50;;;;;;;;;;5006886;28;20025;-78
2021/06/06 07:10:30;;;;;;;0.65;0.50;;;;;;;;;;5019787;28;20440;-78
2021/06/06 07:12:56;;;;;;;0.77;0.60;;;;;;;;;;5010434;28;20044;-78
2021/06/06 07:15:21;;;;;;;1.00;0.40;;;;;;;;;;4992440;28;20551;-78
2021/06/06 07:17:47;;;;;;;1.43;0.60;;;;;;;;;;5023427;28;20025;-78
2021/06/06 07:20:14;;;;;;;1.00;0.50;;;;;;;;;;5022913;28;20108;-78
2021/06/06 07:22:40;;;;;;;0.80;0.52;;;;;;;;;;5023274;28;20049;-78
2021/06/06 07:25:06;;;;;;;1.77;0.60;;;;;;;;;;5007469;28;20503;-78
2021/06/06 07:27:33;;;;;;;1.08;0.55;;;;;;;;;;5038362;28;20025;-77
2021/06/06 07:29:58;;;;;;;0.93;0.60;;;;;;;;;;5019324;28;20481;-78
2021/06/06 07:32:24;;;;;;;0.80;0.60;;;;;;;;;;5002499;28;20033;-78
2021/06/06 07:34:51;;;;;;;1.47;0.70;;;;;;;;;;4997612;28;20044;-78
2021/06/06 07:37:17;;;;;;;1.23;0.50;;;;;;;;;;5019864;28;20033;-78
2021/06/06 07:39:43;;;;;;;1.67;0.80;;;;;;;;;;5009341;28;20105;-78
2021/06/06 07:42:10;;;;;;;1.42;0.55;;;;;;;;;;5008540;28;20064;-78
2021/06/06 07:44:36;;;;;;;0.80;0.52;;;;;;;;;;5040092;28;20025;-78
2021/06/06 07:47:03;;;;;;;0.93;0.60;;;;;;;;;;5023352;28;20450;-78
2021/06/06 07:49:28;;;;;;;0.75;0.43;;;;;;;;;;5034129;28;20051;-78
2021/06/06 07:51:53;;;;;;;1.00;0.60;;;;;;;;;;5019614;28;20038;-78
2021/06/06 07:54:19;;;;;;;1.50;0.70;;;;;;;;;;5019847;28;20049;-78
2021/06/06 07:56:44;;;;;;;1.70;0.60;;;;;;;;;;5018726;28;20030;-78
2021/06/06 07:59:10;;;;;;;0.70;0.60;;;;;;;;;;5024603;28;20488;-78
2021/06/06 08:01:35;;;;;;;1.30;0.60;;;;;;;;;;5038705;28;20499;-78
2021/06/06 08:04:00;;;;;;;0.90;0.60;;;;;;;;;;5055709;28;20085;-78
2021/06/06 08:06:26;;;;;;;1.63;0.70;;;;;;;;;;5055407;28;20033;-78
2021/06/06 08:08:52;;;;;;;1.03;0.60;;;;;;;;;;5039647;28;20591;-78
2021/06/06 08:11:18;;;;;;;1.10;0.68;;;;;;;;;;5038923;28;20060;-78
2021/06/06 08:13:43;;;;;;;1.55;0.50;;;;;;;;;;5055344;28;20061;-78
2021/06/06 08:16:09;;;;;;;0.83;0.50;;;;;;;;;;5039297;28;20045;-78
2021/06/06 08:18:37;;;;;;;1.73;0.50;;;;;;;;;;5038628;28;20514;-78
2021/06/06 08:21:27;;;;;;;0.98;0.70;;;;;;;;;;5040044;28;20099;-78
2021/06/06 08:23:52;;;;;;;1.45;0.57;;;;;;;;;;5056691;28;20028;-78
2021/06/06 08:26:18;;;;;;;1.40;0.60;;;;;;;;;;5042933;28;20029;-78
2021/06/06 08:28:45;;;;;;;2.33;0.70;;;;;;;;;;5042391;28;20389;-78
2021/06/06 08:31:11;;;;;;;;;;;;;;;;;;5042766;28;20037;-78
2021/06/06 08:33:37;;;;;;;1.77;0.60;;;;;;;;;;5059585;28;19977;-78
2021/06/06 08:36:10;;;;;;;0.90;0.60;;;;;;;;;;5060049;28;20108;-78
2021/06/06 08:38:36;;;;;;;1.40;0.60;;;;;;;;;;5043648;28;20430;-78
2021/06/06 08:41:16;;;;;;;1.13;0.50;;;;;;;;;;5059780;28;20017;-78
2021/06/06 08:43:52;;;;;;;1.23;0.60;;;;;;;;;;5044071;28;20436;-78
2021/06/06 08:46:18;;;;;;;1.85;0.65;;;;;;;;;;5058566;28;20086;-78
2021/06/06 08:48:44;;;;;;;1.02;0.55;;;;;;;;;;5035137;28;20021;-78
2021/06/06 08:51:39;;;;;;;0.70;0.50;;;;;;;;;;5040281;28;20400;-77
2021/06/06 08:54:34;;;;;;;0.90;0.50;;;;;;;;;;5041889;28;20037;-78
2021/06/06 08:57:19;;;;;;;2.50;0.60;;;;;;;;;;5038213;28;20053;-78
2021/06/06 08:59:49;;;;;;;1.23;0.60;;;;;;;;;;5041029;28;20025;-78
2021/06/06 09:02:20;;;;;;;1.17;0.60;;;;;;;;;;5058891;28;20116;-78
2021/06/06 09:04:46;;;;;;;0.77;0.57;;;;;;;;;;5058900;28;20044;-78
2021/06/06 09:07:15;;;;;;;1.30;0.60;;;;;;;;;;5038588;28;20501;-78
2021/06/06 09:09:43;;;;;;;0.60;0.40;;;;;;;;;;5041286;28;20273;-78
2021/06/06 09:12:12;;;;;;;0.95;0.43;;;;;;;;;;5009061;28;20091;-78
2021/06/06 09:14:38;;;;;;;1.20;0.60;;;;;;;;;;5008533;28;20103;-78
2021/06/06 09:17:08;;;;;;;1.03;0.47;;;;;;;;;;5056580;28;20022;-78
2021/06/06 09:19:50;;;;;;;1.80;0.50;;;;;;;;;;5025676;28;20480;-78
2021/06/06 09:22:31;;;;;;;0.52;0.50;;;;;;;;;;5038451;28;20034;-77
2021/06/06 09:25:08;;;;;;;0.77;0.50;;;;;;;;;;5006710;28;20362;-78
2021/06/06 09:27:33;;;;;;;0.93;0.50;;;;;;;;;;5026359;28;20104;-78
2021/06/06 09:30:17;;;;;;;2.30;0.60;;;;;;;;;;5042433;28;20045;-78
2021/06/06 09:32:43;;;;;;;2.17;0.70;;;;;;;;;;5021080;28;20022;-78
2021/06/06 09:35:27;;;;;;;1.23;0.60;;;;;;;;;;5005606;28;20022;-78
2021/06/06 09:38:18;;;;;;;1.58;0.70;;;;;;;;;;5026119;28;20037;-78
2021/06/06 09:40:45;;;;;;;1.15;0.50;;;;;;;;;;5027709;28;20033;-78
2021/06/06 09:43:28;;;;;;;1.40;0.50;;;;;;;;;;5050738;28;20021;-78
2021/06/06 09:46:09;;;;;;;1.00;0.57;;;;;;;;;;5021563;28;20388;-78
2021/06/06 09:48:39;;;;;;;1.23;0.60;;;;;;;;;;5028064;28;20032;-78
2021/06/06 09:51:21;;;;;;;1.50;0.50;;;;;;;;;;5040932;28;20021;-78
2021/06/06 09:53:46;;;;;;;0.90;0.50;;;;;;;;;;5057520;28;20060;-78
2021/06/06 09:56:23;;;;;;;0.80;0.50;;;;;;;;;;5043595;28;20029;-78
2021/06/06 09:58:49;;;;;;;0.75;0.50;;;;;;;;;;5057575;28;20055;-78
2021/06/06 10:01:31;;;;;;;1.90;0.77;;;;;;;;;;5043621;28;20646;-78
2021/06/06 10:04:04;;;;;;;0.82;0.47;;;;;;;;;;5040295;28;20025;-78
2021/06/06 10:06:34;;;;;;;0.80;0.50;;;;;;;;;;5023770;28;20041;-78
2021/06/06 10:09:11;;;;;;;1.02;0.50;;;;;;;;;;5041147;28;20028;-78
2021/06/06 10:11:39;;;;;;;;;;;;;;;;;;5027276;28;20029;-78
2021/06/06 10:14:04;;;;;;;;;;;;;;;;;;5042360;28;19913;-78
2021/06/06 10:16:36;;;;;;;0.90;0.50;;;;;;;;;;5042632;28;19920;-78
2021/06/06 10:19:08;;;;;;;1.50;0.50;;;;;;;;;;5038796;28;20029;-78
2021/06/06 10:21:34;;;;;;;1.75;0.45;;;;;;;;;;5038531;28;20048;-78
2021/06/06 10:24:04;;;;;;;;;;;;;;;;;;5023563;28;20039;-78
2021/06/06 10:26:38;;;;;;;0.77;0.50;;;;;;;;;;5039119;28;19952;-78
2021/06/06 10:31:36;;;;;;;1.05;0.52;;;;;;;;;;5054228;28;20503;-76
2021/06/06 10:34:32;;;;;;;0.93;0.50;;;;;;;;;;5063978;28;20028;-76
2021/06/06 10:36:58;;;;;;;2.67;0.68;;;;;;;;;;5074506;28;20021;-76
2021/06/06 10:39:25;;;;;;;1.20;0.50;;;;;;;;;;5052782;28;20027;-76
2021/06/06 10:42:16;;;;;;;0.90;0.45;;;;;;;;;;5039450;28;20086;-76
2021/06/06 10:44:44;;;;;;;2.10;0.68;;;;;;;;;;5016375;28;20031;-76
2021/06/06 10:47:29;;;;;;;0.98;0.50;;;;;;;;;;5041393;28;20129;-76
2021/06/06 10:49:57;;;;;;;1.35;0.40;;;;;;;;;;5023758;28;20073;-76
2021/06/06 10:52:34;;;;;;;1.00;0.50;;;;;;;;;;5023177;28;20115;-76
2021/06/06 10:55:12;;;;;;;1.38;0.50;;;;;;;;;;5031014;28;20029;-76
2021/06/06 10:57:37;;;;;;;1.85;0.50;;;;;;;;;;5018058;28;20468;-76
2021/06/06 11:00:18;;;;;;;1.00;0.50;;;;;;;;;;5036165;28;20096;-76
2021/06/06 11:02:49;;;;;;;1.20;0.40;;;;;;;;;;5053528;28;20028;-76
2021/06/06 11:05:26;;;;;;;0.60;0.40;;;;;;;;;;5039878;28;20024;-76
2021/06/06 11:07:51;;;;;;;1.23;0.50;;;;;;;;;;5033492;28;20029;-76
2021/06/06 11:10:16;;;;;;;0.73;0.50;;;;;;;;;;5036416;28;20575;-76
2021/06/06 11:12:42;;;;;;;5.57;0.70;;;;;;;;;;5053618;28;20049;-76
2021/06/06 11:15:26;;;;;;;2.58;0.60;;;;;;;;;;5020196;28;20467;-76
2021/06/06 11:17:52;;;;;;;1.40;0.45;;;;;;;;;;5059741;28;20407;-76
2021/06/06 11:20:30;;;;;;;0.80;0.50;;;;;;;;;;5055614;28;20067;-76
2021/06/06 11:22:55;;;;;;;0.73;0.50;;;;;;;;;;5048295;28;20032;-76
2021/06/06 11:25:44;;;;;;;1.50;0.70;;;;;;;;;;5019002;28;20020;-76
2021/06/06 11:28:38;;;;;;;2.50;0.55;;;;;;;;;;5029831;28;20115;-76
2021/06/06 11:31:06;;;;;;;1.58;0.50;;;;;;;;;;5055138;28;20032;-76
2021/06/06 11:33:44;;;;;;;1.20;0.50;;;;;;;;;;5033149;28;20033;-76
2021/06/06 11:36:10;;;;;;;1.27;0.52;;;;;;;;;;5039676;28;20021;-76
2021/06/06 11:38:44;;;;;;;1.13;0.40;;;;;;;;;;5021360;28;20404;-76
2021/06/06 11:41:11;;;;;;;5.57;0.57;;;;;;;;;;5015736;28;20035;-76
2021/06/06 11:43:53;;;;;;;3.70;0.50;;;;;;;;;;5070822;28;20052;-76
2021/06/06 11:46:30;;;;;;;4.13;0.68;;;;;;;;;;5039261;28;20032;-76
2021/06/06 11:49:03;;;;;;;1.92;0.50;;;;;;;;;;5038906;28;20040;-76
2021/06/06 11:51:40;;;;;;;1.85;0.40;;;;;;;;;;5035479;28;20029;-76
2021/06/06 11:54:13;;;;;;;2.05;0.52;;;;;;;;;;5002462;28;20032;-76
2021/06/06 11:56:39;;;;;;;2.30;0.47;;;;;;;;;;5026264;28;20499;-77
2021/06/06 11:59:17;;;;;;;0.82;0.50;;;;;;;;;;5031603;28;20432;-76
2021/06/06 12:02:00;;;;;;;3.92;0.57;;;;;;;;;;5059003;28;20020;-76
2021/06/06 12:04:28;;;;;;;1.52;0.50;;;;;;;;;;5035674;28;20032;-76
2021/06/06 12:06:53;;;;;;;4.55;0.55;;;;;;;;;;5007913;28;20068;-76
2021/06/06 12:09:24;;;;;;;2.17;0.80;;;;;;;;;;5040464;28;20057;-76
2021/06/06 12:11:50;;;;;;;5.05;1.40;;;;;;;;;;5004670;28;20029;-76
2021/06/06 12:14:16;;;;;;;4.63;1.60;;;;;;;;;;5053356;28;20455;-77
2021/06/06 12:16:52;;;;;;;4.63;1.70;;;;;;;;;;5077118;28;20104;-77
2021/06/06 12:19:19;;;;;;;4.25;1.80;;;;;;;;;;5052793;28;20090;-77
2021/06/06 12:21:48;;;;;;;3.78;1.70;;;;;;;;;;5026180;28;20035;-77
2021/06/06 12:24:23;;;;;;;3.88;1.98;;;;;;;;;;5043336;28;20031;-77
2021/06/06 12:26:53;;;;;;;4.03;2.00;;;;;;;;;;5040996;28;20028;-77
2021/06/06 12:29:26;;;;;;;3.83;2.03;;;;;;;;;;5015271;28;20398;-77
2021/06/06 12:31:51;;;;;;;4.55;2.08;;;;;;;;;;5034700;28;20028;-77
2021/06/06 12:34:27;;;;;;;4.77;2.40;;;;;;;;;;5042832;28;20514;-77
2021/06/06 12:36:57;;;;;;;4.88;2.38;;;;;;;;;;5033710;28;20028;-77
2021/06/06 12:39:23;;;;;;;4.40;2.40;;;;;;;;;;5012462;28;20560;-77
2021/06/06 12:41:48;;;;;;;4.23;2.20;;;;;;;;;;5040619;28;20074;-77
2021/06/06 12:44:15;;;;;;;6.07;2.40;;;;;;;;;;5042753;28;20047;-77
2021/06/06 12:47:03;;;;;;;4.93;2.60;;;;;;;;;;5034896;28;20033;-77
2021/06/06 12:49:53;;;;;;;4.85;2.60;;;;;;;;;;5004064;28;20087;-78
2021/06/06 12:52:32;;;;;;;5.82;2.80;;;;;;;;;;5016853;28;20030;-77
2021/06/06 12:55:11;;;;;;;7.85;3.13;;;;;;;;;;5027237;28;20108;-77
2021/06/06 12:57:37;;;;;;;6.15;2.97;;;;;;;;;;5043800;28;20495;-77
2021/06/06 13:00:10;;;;;;;5.70;2.60;;;;;;;;;;5038875;28;20055;-77
2021/06/06 13:02:43;;;;;;;5.00;2.75;;;;;;;;;;5057560;28;20024;-77
2021/06/06 13:05:14;;;;;;;4.88;2.15;;;;;;;;;;5042951;28;20027;-77
2021/06/06 13:07:40;;;;;;;4.53;2.30;;;;;;;;;;5018740;28;20110;-77
2021/06/06 13:10:24;;;;;;;4.65;2.47;;;;;;;;;;5002822;28;20029;-77
2021/06/06 13:12:49;;;;;;;7.05;2.85;;;;;;;;;;5035601;28;20036;-77
2021/06/06 13:15:39;;;;;;;5.33;2.53;;;;;;;;;;5042081;28;20483;-77
2021/06/06 13:18:20;;;;;;;5.35;2.88;;;;;;;;;;5016397;28;20033;-77
2021/06/06 13:20:55;;;;;;;5.68;2.67;;;;;;;;;;5041006;28;20021;-77
2021/06/06 13:23:33;;;;;;;7.45;3.00;;;;;;;;;;5024028;28;20078;-77
2021/06/06 13:26:06;;;;;;;6.45;2.70;;;;;;;;;;5036479;28;20035;-78
2021/06/06 13:28:51;;;;;;;7.05;2.60;;;;;;;;;;5007622;28;20055;-77
2021/06/06 13:31:29;;;;;;;5.45;2.40;;;;;;;;;;5032820;28;20472;-77
2021/06/06 13:33:54;;;;;;;5.95;2.53;;;;;;;;;;5039440;28;20033;-77
2021/06/06 13:36:20;;;;;;;6.10;2.37;;;;;;;;;;5037926;28;20484;-77
2021/06/06 13:38:45;;;;;;;4.18;2.33;;;;;;;;;;5055118;28;20055;-77
2021/06/06 13:41:13;;;;;;;3.63;1.77;;;;;;;;;;5043483;28;20043;-77
2021/06/06 13:43:39;;;;;;;4.15;2.17;;;;;;;;;;5043956;28;20489;-77
2021/06/06 13:46:04;;;;;;;4.50;2.30;;;;;;;;;;5053502;28;20039;-77
2021/06/06 13:48:30;;;;;;;4.73;2.00;;;;;;;;;;5024894;28;20063;-77
2021/06/06 13:50:56;;;;;;;4.95;2.10;;;;;;;;;;5041013;28;20035;-77
2021/06/06 13:53:23;;;;;;;5.80;1.95;;;;;;;;;;5044212;28;20025;-77
2021/06/06 13:55:48;;;;;;;5.35;1.90;;;;;;;;;;5025893;28;20032;-78
2021/06/06 13:58:14;;;;;;;3.70;1.87;;;;;;;;;;5011953;28;20028;-77
2021/06/06 14:00:40;;;;;;;3.27;1.80;;;;;;;;;;5023638;28;20035;-77
2021/06/06 14:03:27;;;;;;;4.78;1.75;;;;;;;;;;5036794;28;20100;-77
2021/06/06 14:05:53;;;;;;;4.40;2.13;;;;;;;;;;5049913;28;20068;-77
2021/06/06 14:08:19;;;;;;;3.90;2.00;;;;;;;;;;5058155;28;20503;-77
2021/06/06 14:10:46;;;;;;;4.93;1.80;;;;;;;;;;5038487;28;20037;-77
2021/06/06 14:13:21;;;;;;;4.32;2.13;;;;;;;;;;5027240;28;20024;-77
2021/06/06 14:15:46;;;;;;;3.58;1.52;;;;;;;;;;5025143;28;20093;-77
2021/06/06 14:18:12;;;;;;;3.17;1.93;;;;;;;;;;5029578;28;20064;-77
2021/06/06 14:20:37;;;;;;;4.50;2.07;;;;;;;;;;5052094;28;20390;-77
2021/06/06 14:23:03;;;;;;;2.97;1.67;;;;;;;;;;5032426;28;20033;-77
2021/06/06 14:25:30;;;;;;;3.90;1.90;;;;;;;;;;5038148;28;20031;-78
2021/06/06 14:27:56;;;;;;;3.92;1.80;;;;;;;;;;5042030;28;20070;-78
2021/06/06 14:30:23;;;;;;;3.83;1.85;;;;;;;;;;5018928;28;20025;-78
2021/06/06 14:32:50;;;;;;;3.78;1.90;;;;;;;;;;5033898;28;20033;-77
2021/06/06 14:35:16;;;;;;;3.75;1.58;;;;;;;;;;5019855;28;20045;-77
2021/06/06 14:37:42;;;;;;;4.10;1.88;;;;;;;;;;5023259;28;20134;-77
2021/06/06 14:40:08;;;;;;;4.32;1.83;;;;;;;;;;5023013;28;20467;-77
2021/06/06 14:42:33;;;;;;;4.55;1.98;;;;;;;;;;5013732;28;20033;-77
2021/06/06 14:44:59;;;;;;;4.03;1.97;;;;;;;;;;5024579;28;20066;-77
2021/06/06 14:47:24;;;;;;;2.97;1.70;;;;;;;;;;5052949;28;20059;-77
2021/06/06 14:49:50;;;;;;;3.60;1.70;;;;;;;;;;5039863;28;20044;-77
2021/06/06 14:52:16;;;;;;;3.57;1.80;;;;;;;;;;5021767;28;20087;-77
2021/06/06 14:54:42;;;;;;;2.70;1.45;;;;;;;;;;5018660;28;20411;-77
2021/06/06 14:57:08;;;;;;;;;;;;;;;;;;5039684;28;20064;-77
2021/06/06 14:59:33;;;;;;;3.30;1.73;;;;;;;;;;5041204;28;20295;-77
2021/06/06 15:01:58;;;;;;;2.93;1.50;;;;;;;;;;5023149;28;20032;-77